Time;durP1;ratioP1;P1;durP2;ratioP2;P2;SDS_P1;SDS_P2;PMS_P1;PMS_P2;Temp;Humidity;BMP_temperature;BMP_pressure;BME280_temperature;BME280_humidity;BME280_pressure;Samples;Min_cycle;Max_cycle;Signal;HPM_P1;HPM_P2
2022/08/09 00:04:40;;;;;;;1.40;1.30;;;;;;;20.67;49.61;97133.53;10325462;28;20069;-30
2022/08/09 00:09:41;;;;;;;2.57;1.40;;;;;;;20.63;49.06;97126.75;10322526;28;20034;-30
2022/08/09 00:14:41;;;;;;;2.33;1.35;;;;;;;20.66;48.80;97126.75;10328964;28;20519;-30
2022/08/09 00:19:42;;;;;;;2.38;1.30;;;;;;;20.56;48.69;97135.22;10324595;28;20497;-30
2022/08/09 00:24:42;;;;;;;1.60;1.50;;;;;;;20.60;49.22;97119.13;10320969;28;20092;-31
2022/08/09 00:29:42;;;;;;;3.30;1.48;;;;;;;20.56;49.44;97132.69;10327829;28;20046;-31
2022/08/09 00:34:44;;;;;;;1.77;1.10;;;;;;;20.56;49.50;97130.16;10325855;28;20034;-30
2022/08/09 00:39:44;;;;;;;3.00;1.50;;;;;;;20.51;49.66;97131.88;10323608;28;20073;-30
2022/08/09 00:44:44;;;;;;;1.63;1.40;;;;;;;20.48;49.54;97126.78;10325337;28;20042;-31
2022/08/09 00:49:45;;;;;;;1.73;1.43;;;;;;;20.47;49.87;97125.06;10326960;28;20291;-30
2022/08/09 00:54:47;;;;;;;2.23;1.40;;;;;;;20.47;49.92;97124.25;10322017;28;20034;-30
2022/08/09 00:59:48;;;;;;;2.90;1.50;;;;;;;20.42;50.20;97126.81;10326216;28;21014;-30
2022/08/09 01:05:08;;;;;;;2.28;1.50;;;;;;;20.42;50.01;97121.72;10325740;28;20034;-31
2022/08/09 01:10:32;;;;;;;2.17;1.65;;;;;;;20.42;50.15;97114.94;10322053;28;20045;-30
2022/08/09 01:15:38;;;;;;;2.13;1.75;;;;;;;20.42;50.45;97120.03;10325048;28;20052;-30
2022/08/09 01:20:51;;;;;;;1.93;1.33;;;;;;;20.38;50.31;97115.78;10326239;28;20065;-30
2022/08/09 01:26:36;;;;;;;1.73;1.58;;;;;;;20.41;50.21;97121.69;10321358;28;20243;-30
2022/08/09 01:31:38;;;;;;;1.90;1.70;;;;;;;20.34;50.02;97119.19;10318592;28;20084;-30
2022/08/09 01:36:40;;;;;;;1.77;1.40;;;;;;;20.31;50.13;97112.41;10322355;28;20146;-30
2022/08/09 01:41:42;;;;;;;2.42;1.67;;;;;;;20.27;50.39;97117.50;10325176;28;20037;-29
2022/08/09 01:46:45;;;;;;;1.80;1.50;;;;;;;20.30;50.47;97122.56;10321042;28;20509;-29
2022/08/09 01:51:49;;;;;;;4.35;1.65;;;;;;;20.18;50.46;97127.66;10317469;28;20654;-30
2022/08/09 01:56:51;;;;;;;1.83;1.40;;;;;;;20.12;50.49;97120.88;10324251;28;20068;-30
2022/08/09 02:01:53;;;;;;;1.85;1.48;;;;;;;20.10;50.76;97120.03;10323364;28;20030;-30
2022/08/09 02:07:14;;;;;;;2.38;1.65;;;;;;;20.14;50.73;97129.34;10315379;28;20042;-30
2022/08/09 02:12:20;;;;;;;2.50;1.50;;;;;;;20.12;50.91;97136.16;10323202;28;20038;-30
2022/08/09 02:17:26;;;;;;;2.73;1.60;;;;;;;20.08;50.95;97125.97;10318557;28;20455;-29
2022/08/09 02:22:34;;;;;;;;;;;;;;;20.02;51.16;97138.63;10319197;28;20420;-30
2022/08/09 02:27:37;;;;;;;1.58;1.45;;;;;;;19.98;51.30;97132.72;10320304;28;19925;-30
2022/08/09 02:32:43;;;;;;;2.78;1.27;;;;;;;20.06;51.30;97142.91;10320893;28;20034;-30
2022/08/09 02:37:46;;;;;;;2.47;1.48;;;;;;;20.05;51.53;97143.75;10320519;28;20039;-30
2022/08/09 02:42:49;;;;;;;3.35;1.60;;;;;;;20.02;51.69;97139.47;10319708;28;20555;-30
2022/08/09 02:47:52;;;;;;;1.50;1.40;;;;;;;20.06;51.82;97136.13;10321974;28;20117;-30
2022/08/09 02:53:06;;;;;;;3.55;1.63;;;;;;;20.05;51.91;97133.56;10318805;28;20445;-29
2022/08/09 02:58:09;;;;;;;2.15;1.65;;;;;;;20.06;52.14;97125.97;10320546;28;20141;-30
2022/08/09 03:03:10;;;;;;;1.83;1.50;;;;;;;19.97;52.59;97131.00;10319391;28;20083;-30
2022/08/09 03:08:12;;;;;;;1.50;1.40;;;;;;;19.95;52.79;97131.84;10316660;28;20057;-30
2022/08/09 03:13:14;;;;;;;1.88;1.67;;;;;;;19.91;53.03;97135.25;10320916;28;20045;-30
2022/08/09 03:18:15;;;;;;;2.00;1.80;;;;;;;19.89;52.95;97126.75;10323387;28;20038;-31
2022/08/09 03:23:17;;;;;;;1.98;1.40;;;;;;;19.90;52.68;97134.38;10325074;28;20436;-31
2022/08/09 03:28:18;;;;;;;2.95;1.60;;;;;;;19.89;52.41;97136.91;10329641;28;20031;-30
2022/08/09 03:33:19;;;;;;;2.45;1.92;;;;;;;19.82;52.79;97131.00;10328916;28;20042;-31
2022/08/09 03:38:20;;;;;;;1.50;1.40;;;;;;;19.85;52.61;97135.25;10327799;28;20041;-30
2022/08/09 03:43:20;;;;;;;2.78;1.60;;;;;;;19.88;52.60;97153.00;10329692;28;20531;-30
2022/08/09 03:48:23;;;;;;;3.80;1.73;;;;;;;19.91;52.49;97145.41;10320797;28;20046;-30
2022/08/09 03:53:25;;;;;;;2.45;1.60;;;;;;;19.89;52.39;97155.56;10323847;28;20492;-29
2022/08/09 03:58:25;;;;;;;1.65;1.55;;;;;;;19.90;52.63;97161.47;10328916;28;20088;-30
2022/08/09 04:03:27;;;;;;;2.65;1.48;;;;;;;20.01;52.37;97157.28;10317809;28;20121;-30
2022/08/09 04:08:27;;;;;;;2.92;1.40;;;;;;;19.95;52.24;97152.19;10321434;28;20510;-30
2022/08/09 04:13:28;;;;;;;3.07;1.53;;;;;;;19.89;52.30;97162.34;10325074;28;20045;-30
2022/08/09 04:18:28;;;;;;;1.45;1.35;;;;;;;19.88;52.11;97158.09;10316720;28;20030;-30
2022/08/09 04:23:28;;;;;;;4.20;1.30;;;;;;;19.84;52.24;97166.56;10321821;28;20034;-29
2022/08/09 04:28:29;;;;;;;1.90;1.40;;;;;;;19.84;52.22;97153.88;10325246;28;20053;-31
2022/08/09 04:33:29;;;;;;;3.07;1.83;;;;;;;20.23;51.86;97153.91;10325674;28;20069;-30
2022/08/09 04:38:30;;;;;;;3.97;2.10;;;;;;;20.66;50.79;97162.38;10324664;28;20030;-30
2022/08/09 04:43:30;;;;;;;7.10;2.07;;;;;;;20.92;49.83;97155.56;10322991;28;20156;-30
2022/08/09 04:48:30;;;;;;;3.70;2.07;;;;;;;21.10;49.45;97170.78;10327075;28;20484;-29
2022/08/09 04:53:31;;;;;;;2.33;1.63;;;;;;;21.10;49.09;97175.88;10319792;28;20459;-30
2022/08/09 04:58:32;;;;;;;2.50;1.70;;;;;;;21.10;49.23;97180.97;10325742;28;20026;-30
2022/08/09 05:03:32;;;;;;;2.28;1.58;;;;;;;21.09;49.24;97184.38;10323666;28;20300;-30
2022/08/09 05:08:33;;;;;;;4.93;1.92;;;;;;;21.12;49.24;97179.25;10319555;28;20037;-29
2022/08/09 05:13:34;;;;;;;4.18;2.13;;;;;;;21.22;49.71;97175.81;10326286;28;20046;-30
2022/08/09 05:18:35;;;;;;;10.18;2.13;;;;;;;21.30;49.55;97176.63;10317339;28;20739;-30
2022/08/09 05:23:35;;;;;;;3.40;1.70;;;;;;;21.35;49.31;97180.03;10320529;28;20045;-31
2022/08/09 05:28:36;;;;;;;4.00;1.80;;;;;;;21.32;49.50;97182.56;10325346;28;20034;-30
2022/08/09 05:33:37;;;;;;;1.63;1.47;;;;;;;21.34;49.13;97180.88;10320401;28;20372;-30
2022/08/09 05:38:37;;;;;;;5.68;1.85;;;;;;;21.32;49.34;97182.56;10322586;28;20832;-31
2022/08/09 05:43:37;;;;;;;6.50;1.80;;;;;;;21.26;49.75;97177.53;10324770;28;20049;-30
2022/08/09 05:48:38;;;;;;;9.93;2.00;;;;;;;21.28;50.48;97183.44;10320707;28;20117;-30
2022/08/09 05:53:38;;;;;;;3.07;1.50;;;;;;;21.27;50.52;97189.41;10321130;28;20865;-31
2022/08/09 05:58:38;;;;;;;5.90;1.60;;;;;;;21.28;50.78;97191.09;10317684;28;20348;-30
2022/08/09 06:03:39;;;;;;;2.90;2.10;;;;;;;21.29;50.71;97191.94;10320580;28;20121;-30
2022/08/09 06:08:39;;;;;;;5.57;1.95;;;;;;;21.30;50.56;97191.94;10316770;28;20464;-31
2022/08/09 06:13:40;;;;;;;3.90;1.90;;;;;;;21.29;50.86;97197.06;10324561;28;20408;-30
2022/08/09 06:18:40;;;;;;;2.70;1.70;;;;;;;21.26;50.85;97192.81;10321528;28;20290;-30
2022/08/09 06:23:41;;;;;;;3.47;1.77;;;;;;;21.33;50.95;97198.72;10319147;28;20548;-31
2022/08/09 06:28:41;;;;;;;2.43;1.60;;;;;;;21.49;49.83;97206.28;10323751;28;20041;-29
2022/08/09 06:33:41;;;;;;;2.67;1.70;;;;;;;21.57;49.87;97204.53;10318686;28;20038;-30
2022/08/09 06:38:43;;;;;;;2.70;1.67;;;;;;;21.50;50.73;97208.00;10322754;28;20037;-30
2022/08/09 06:43:45;;;;;;;2.13;1.73;;;;;;;21.42;50.95;97211.41;10322046;28;20046;-30
2022/08/09 06:48:45;;;;;;;2.08;1.67;;;;;;;21.39;51.03;97204.63;10323183;28;20065;-31
2022/08/09 06:53:45;;;;;;;2.17;1.60;;;;;;;21.38;51.34;97205.47;10325318;28;20040;-31
2022/08/09 06:58:46;;;;;;;3.97;1.70;;;;;;;21.36;51.51;97204.66;10331073;28;20046;-30
2022/08/09 07:03:46;;;;;;;2.13;1.40;;;;;;;21.30;51.58;97186.84;10326601;28;20034;-31
2022/08/09 07:08:47;;;;;;;3.23;2.00;;;;;;;21.36;51.63;97198.69;10324183;28;20547;-30
2022/08/09 07:13:47;;;;;;;4.28;1.77;;;;;;;21.37;51.37;97197.84;10330882;28;20036;-32
2022/08/09 07:18:47;;;;;;;2.33;1.37;;;;;;;21.48;50.71;97198.66;10327477;28;20038;-30
2022/08/09 07:23:48;;;;;;;2.87;1.60;;;;;;;21.63;49.98;97194.34;10324995;28;20092;-31
2022/08/09 07:28:48;;;;;;;4.88;1.40;;;;;;;21.62;50.88;97196.88;10329999;28;20030;-30
2022/08/09 07:33:49;;;;;;;1.20;1.00;;;;;;;21.54;51.29;97191.81;10326148;28;20038;-30
2022/08/09 07:38:49;;;;;;;1.70;1.37;;;;;;;21.48;50.98;97194.41;10327424;28;20316;-30
2022/08/09 07:43:49;;;;;;;1.77;1.30;;;;;;;21.47;51.35;97202.91;10327408;28;20038;-30
2022/08/09 07:48:50;;;;;;;2.10;1.33;;;;;;;21.46;51.10;97200.38;10326559;28;20698;-30
2022/08/09 07:53:51;;;;;;;1.80;1.40;;;;;;;21.44;51.38;97208.00;10325361;28;20034;-30
2022/08/09 07:58:51;;;;;;;1.63;1.50;;;;;;;21.44;50.95;97202.91;10328870;28;20320;-30
2022/08/09 08:03:52;;;;;;;2.65;1.42;;;;;;;21.44;51.32;97204.59;10325480;28;20138;-30
2022/08/09 08:08:52;;;;;;;2.13;1.87;;;;;;;21.47;50.51;97210.53;10322017;28;20042;-32
2022/08/09 08:13:52;;;;;;;1.47;1.10;;;;;;;21.63;49.32;97203.69;10327008;28;20041;-30
2022/08/09 08:18:53;;;;;;;1.67;1.58;;;;;;;21.72;48.95;97209.59;10320008;28;20289;-30
2022/08/09 08:23:53;;;;;;;2.00;1.30;;;;;;;21.64;50.80;97224.06;10322590;28;20048;-31
2022/08/09 08:28:53;;;;;;;1.57;1.40;;;;;;;21.58;50.72;97228.34;10326636;28;20034;-31
2022/08/09 08:33:54;;;;;;;4.03;1.20;;;;;;;21.54;50.68;97214.75;10327762;28;20037;-30
2022/08/09 08:38:54;;;;;;;1.97;1.10;;;;;;;21.51;50.64;97209.69;10325172;28;20076;-30
2022/08/09 08:43:57;;;;;;;1.75;1.60;;;;;;;21.50;50.86;97215.66;10326759;28;20045;-30
2022/08/09 08:48:57;;;;;;;2.75;1.20;;;;;;;21.48;50.99;97222.41;10325931;28;20049;-30
2022/08/09 08:53:58;;;;;;;1.38;1.20;;;;;;;21.46;51.76;97215.66;10321716;28;20026;-30
2022/08/09 08:59:01;;;;;;;2.40;1.48;;;;;;;21.47;51.21;97223.28;10327230;28;20049;-30
2022/08/09 09:04:03;;;;;;;1.73;1.20;;;;;;;21.60;49.75;97217.28;10325153;28;20034;-30
2022/08/09 09:09:05;;;;;;;3.30;1.20;;;;;;;21.76;48.97;97220.63;10318574;28;20055;-30
2022/08/09 09:14:25;;;;;;;1.50;1.38;;;;;;;21.71;50.68;97220.66;10322681;28;20109;-30
2022/08/09 09:19:29;;;;;;;1.73;1.20;;;;;;;21.60;50.85;97224.94;10326148;28;20408;-31
2022/08/09 09:24:42;;;;;;;2.28;1.48;;;;;;;21.59;50.46;97230.03;10321225;28;20034;-30
2022/08/09 09:29:43;;;;;;;3.20;1.60;;;;;;;21.59;49.69;97228.34;10324814;28;20062;-30
2022/08/09 09:35:00;;;;;;;2.65;1.10;;;;;;;21.59;49.67;97230.91;10320630;28;20030;-31
2022/08/09 09:40:01;;;;;;;2.33;1.10;;;;;;;21.57;50.06;97224.94;10324236;28;20042;-30
2022/08/09 09:45:05;;;;;;;3.38;1.33;;;;;;;21.56;50.63;97232.59;10324598;28;20026;-29
2022/08/09 09:50:06;;;;;;;1.58;1.38;;;;;;;21.54;50.38;97219.84;10322839;28;20295;-30
2022/08/09 09:55:10;;;;;;;1.40;1.00;;;;;;;21.65;47.96;97219.84;10320708;28;20042;-30
2022/08/09 10:00:23;;;;;;;3.47;1.40;;;;;;;21.80;48.15;97218.06;10322844;28;20405;-30
2022/08/09 10:05:24;;;;;;;1.38;0.90;;;;;;;21.80;49.66;97220.63;10323067;28;20034;-30
2022/08/09 10:10:29;;;;;;;1.08;0.98;;;;;;;21.69;49.89;97212.19;10317136;28;20657;-29
2022/08/09 10:15:29;;;;;;;1.80;1.45;;;;;;;21.62;50.21;97217.25;10322968;28;20033;-30
2022/08/09 10:20:30;;;;;;;2.13;1.20;;;;;;;21.59;49.89;97218.16;10323999;28;20049;-29
2022/08/09 10:25:31;;;;;;;2.00;1.23;;;;;;;21.58;50.60;97226.66;10319947;28;20452;-30
2022/08/09 10:30:31;;;;;;;3.85;1.40;;;;;;;21.59;49.23;97219.84;10331045;28;20292;-30
2022/08/09 10:35:33;;;;;;;2.25;1.00;;;;;;;21.61;49.20;97205.38;10331770;28;20107;-30
2022/08/09 10:40:34;;;;;;;2.45;1.27;;;;;;;21.58;50.96;97203.72;10329882;28;20064;-29
2022/08/09 10:45:35;;;;;;;2.65;1.30;;;;;;;21.57;50.17;97198.63;10328141;28;20046;-30
2022/08/09 10:56:24;;;;;;;1.30;1.20;;;;;;;21.83;48.72;97200.22;10328890;28;20435;-30
2022/08/09 11:01:30;;;;;;;1.98;1.20;;;;;;;21.72;50.06;97201.97;10329123;28;20253;-29
2022/08/09 11:06:32;;;;;;;2.33;1.40;;;;;;;21.65;50.03;97187.56;10323713;28;20039;-30
2022/08/09 11:11:54;;;;;;;3.40;1.20;;;;;;;21.62;50.81;97191.78;10331130;28;20180;-31
2022/08/09 11:16:55;;;;;;;1.23;0.98;;;;;;;21.59;50.61;97181.63;10324990;28;20069;-30
2022/08/09 11:21:57;;;;;;;2.42;1.30;;;;;;;21.56;50.73;97182.47;10325744;28;20493;-30
2022/08/09 11:26:58;;;;;;;7.18;1.50;;;;;;;21.62;50.99;97181.59;10329719;28;20073;-30
2022/08/09 11:31:59;;;;;;;5.33;1.90;;;;;;;21.64;50.68;97190.09;10326483;28;20034;-30
2022/08/09 11:37:02;;;;;;;2.63;1.23;;;;;;;21.58;51.39;97185.03;10326677;28;20030;-30
2022/08/09 11:42:07;;;;;;;2.15;1.20;;;;;;;21.80;48.74;97182.38;10329723;28;20392;-30
2022/08/09 11:47:07;;;;;;;1.67;1.30;;;;;;;21.89;48.20;97177.22;10328260;28;20056;-30
2022/08/09 11:52:08;;;;;;;1.67;1.10;;;;;;;21.78;50.53;97184.09;10325435;28;20050;-30
2022/08/09 11:57:37;;;;;;;3.70;1.23;;;;;;;21.69;50.77;97189.25;10327974;28;20285;-34
2022/08/09 12:02:38;;;;;;;1.17;1.08;;;;;;;21.65;49.31;97159.53;10326121;28;20285;-30
2022/08/09 12:07:39;;;;;;;4.38;1.33;;;;;;;21.61;51.46;97159.50;10321863;28;20034;-30
2022/08/09 12:12:45;;;;;;;2.10;1.15;;;;;;;21.65;51.01;97161.25;10328837;28;20104;-29
2022/08/09 12:17:47;;;;;;;1.52;1.15;;;;;;;21.61;51.26;97154.41;10327503;28;20038;-30
2022/08/09 12:22:50;;;;;;;1.45;1.13;;;;;;;21.59;50.90;97149.34;10322680;28;20044;-30
2022/08/09 12:28:11;;;;;;;2.13;1.45;;;;;;;21.64;49.84;97159.50;10327489;28;20034;-30
2022/08/09 12:33:12;;;;;;;2.00;1.20;;;;;;;21.83;47.38;97154.34;10321299;28;20040;-31
2022/08/09 12:38:24;;;;;;;1.25;1.15;;;;;;;21.94;47.31;97155.09;10327035;28;20026;-31
2022/08/09 12:43:26;;;;;;;1.20;1.10;;;;;;;21.83;49.83;97148.38;10328863;28;20343;-30
2022/08/09 12:48:28;;;;;;;1.10;0.90;;;;;;;21.73;50.59;97145.03;10326954;28;20050;-30
2022/08/09 12:53:31;;;;;;;1.13;1.00;;;;;;;21.60;50.52;97132.34;10324068;28;20030;-30
2022/08/09 12:58:32;;;;;;;3.15;1.10;;;;;;;21.68;50.15;97144.22;10329315;28;20034;-30
2022/08/09 13:03:34;;;;;;;1.33;0.95;;;;;;;21.63;51.61;97143.38;10322176;28;20034;-30
2022/08/09 13:08:34;;;;;;;1.13;0.98;;;;;;;21.65;51.40;97140.84;10316934;28;20046;-30
2022/08/09 13:13:42;;;;;;;2.75;1.08;;;;;;;21.56;51.75;97136.59;10326322;28;20041;-30
2022/08/09 13:18:47;;;;;;;2.65;1.17;;;;;;;21.61;51.65;97134.88;10321098;28;20030;-31
2022/08/09 13:23:57;;;;;;;1.75;1.10;;;;;;;21.79;49.93;97132.25;10313948;28;20041;-30
2022/08/09 13:29:19;;;;;;;3.13;1.20;;;;;;;21.92;49.25;97128.78;10326020;28;20080;-30
2022/08/09 13:34:19;;;;;;;1.92;0.88;;;;;;;21.86;50.15;97125.41;10322670;28;20061;-30
2022/08/09 13:39:20;;;;;;;0.90;0.80;;;;;;;21.73;51.09;97119.53;10322848;28;20092;-31
2022/08/09 13:44:20;;;;;;;4.33;1.10;;;;;;;21.70;51.79;97117.03;10322620;28;20113;-30
2022/08/09 13:49:21;;;;;;;1.43;1.07;;;;;;;21.71;50.78;97120.44;10324813;28;20035;-30
2022/08/09 13:54:21;;;;;;;1.70;1.00;;;;;;;21.61;51.62;97091.56;10318879;28;20050;-30
2022/08/09 13:59:21;;;;;;;1.10;0.90;;;;;;;21.58;51.97;97094.16;10322051;28;20096;-30
2022/08/09 14:04:22;;;;;;;2.40;1.00;;;;;;;21.66;51.23;97100.03;10322805;28;20121;-30
2022/08/09 14:09:23;;;;;;;1.97;1.00;;;;;;;21.68;51.37;97092.41;10318529;28;20042;-29
2022/08/09 14:14:24;;;;;;;1.60;1.38;;;;;;;21.82;49.70;97100.81;10323745;28;20041;-30
2022/08/09 14:19:25;;;;;;;1.60;1.30;;;;;;;21.95;48.93;97103.25;10316791;28;20068;-30
2022/08/09 14:24:25;;;;;;;1.30;0.82;;;;;;;21.88;50.84;97088.84;10311603;28;20460;-30
2022/08/09 14:29:26;;;;;;;2.33;1.23;;;;;;;21.82;50.99;97094.00;10317455;28;20186;-29
2022/08/09 14:34:27;;;;;;;2.97;1.30;;;;;;;21.77;50.81;97095.75;10319676;28;20042;-30
2022/08/09 14:39:28;;;;;;;2.00;0.98;;;;;;;21.74;51.72;97085.56;10317019;28;20281;-30
2022/08/09 14:44:28;;;;;;;2.85;1.60;;;;;;;21.72;51.51;97089.81;10320384;28;20444;-30
2022/08/09 14:49:28;;;;;;;2.47;1.00;;;;;;;21.76;50.81;97093.19;10312903;28;20695;-29
2022/08/09 14:54:29;;;;;;;1.03;0.93;;;;;;;21.70;52.10;97089.00;10320276;28;20479;-30
2022/08/09 14:59:29;;;;;;;1.08;1.08;;;;;;;21.66;52.04;97097.50;10319922;28;20293;-30
2022/08/09 15:04:30;;;;;;;1.43;0.83;;;;;;;21.75;50.57;97097.47;10315336;28;20036;-30
2022/08/09 15:09:30;;;;;;;1.53;1.10;;;;;;;21.96;49.47;97094.75;10315927;28;20061;-30
2022/08/09 15:14:30;;;;;;;1.05;0.95;;;;;;;21.98;50.46;97090.47;10328328;28;20037;-30
2022/08/09 15:19:31;;;;;;;4.93;1.20;;;;;;;21.88;50.33;97104.16;10329247;28;20030;-30
2022/08/09 15:24:31;;;;;;;5.67;1.17;;;;;;;21.85;49.30;97093.13;10324318;28;20794;-30
2022/08/09 15:29:32;;;;;;;1.53;0.93;;;;;;;21.78;51.04;97102.53;10330779;28;20085;-30
2022/08/09 15:34:32;;;;;;;1.10;1.00;;;;;;;21.74;52.30;97090.66;10327649;28;20045;-30
2022/08/09 15:39:32;;;;;;;1.73;1.00;;;;;;;21.74;50.74;97074.53;10327360;28;20030;-30
2022/08/09 15:44:33;;;;;;;1.50;0.97;;;;;;;21.74;52.13;97077.91;10329450;28;20113;-29
2022/08/09 15:49:33;;;;;;;3.50;1.33;;;;;;;21.75;51.51;97081.31;10326046;28;20029;-29
2022/08/09 15:54:35;;;;;;;1.23;1.03;;;;;;;21.68;53.04;97070.31;10323082;28;20034;-30
2022/08/09 15:59:35;;;;;;;1.27;0.98;;;;;;;21.90;49.75;97071.84;10329508;28;20026;-31
2022/08/09 16:04:35;;;;;;;1.83;0.80;;;;;;;22.05;48.09;97076.81;10325289;28;20030;-30
2022/08/09 16:09:37;;;;;;;0.98;0.90;;;;;;;21.96;51.17;97082.00;10322701;28;20304;-29
2022/08/09 16:14:37;;;;;;;5.30;1.27;;;;;;;21.87;50.99;97071.88;10323220;28;20069;-29
2022/08/09 16:19:37;;;;;;;4.90;1.20;;;;;;;21.80;51.94;97075.31;10328515;28;20387;-30
2022/08/09 16:24:38;;;;;;;1.90;0.90;;;;;;;21.79;51.36;97063.44;10322580;28;20161;-30
2022/08/09 16:29:38;;;;;;;4.23;1.17;;;;;;;21.78;52.50;97071.09;10328060;28;20030;-30
2022/08/09 16:34:38;;;;;;;1.10;1.00;;;;;;;21.72;52.73;97074.53;10326182;28;20092;-29
2022/08/09 16:39:39;;;;;;;1.17;1.07;;;;;;;21.74;53.26;97074.53;10325362;28;20045;-30
2022/08/09 16:44:39;;;;;;;2.23;1.00;;;;;;;21.72;52.63;97066.88;10327392;28;20294;-30
2022/08/09 16:49:39;;;;;;;1.30;0.83;;;;;;;21.90;50.34;97064.19;10321330;28;20077;-30
2022/08/09 16:54:40;;;;;;;8.40;1.57;;;;;;;22.05;49.46;97065.78;10312087;28;20034;-30
2022/08/09 16:59:40;;;;;;;1.00;0.73;;;;;;;21.92;50.84;97049.75;10317302;28;20047;-30
2022/08/09 17:04:41;;;;;;;0.85;0.85;;;;;;;21.90;51.11;97065.91;10317581;28;20300;-31
2022/08/09 17:09:41;;;;;;;2.08;1.10;;;;;;;21.87;50.58;97069.31;10315478;28;20053;-30
2022/08/09 17:14:42;;;;;;;3.23;1.60;;;;;;;21.85;51.12;97062.53;10314777;28;20034;-30
2022/08/09 17:19:42;;;;;;;2.07;1.30;;;;;;;21.82;52.29;97071.03;10302342;28;20298;-30
2022/08/09 17:24:43;;;;;;;4.30;1.40;;;;;;;21.81;52.34;97082.09;10319733;28;20100;-30
2022/08/09 17:29:43;;;;;;;2.43;1.23;;;;;;;21.77;52.14;97077.91;10326309;28;20042;-30
2022/08/09 17:34:43;;;;;;;7.97;1.07;;;;;;;21.79;50.96;97078.72;10317324;28;20034;-30
2022/08/09 17:39:44;;;;;;;3.67;1.13;;;;;;;21.99;48.99;97081.13;10312141;28;20114;-31
2022/08/09 17:44:44;;;;;;;3.27;0.87;;;;;;;22.15;48.66;97083.53;10314485;28;20039;-31
2022/08/09 17:49:44;;;;;;;6.07;1.30;;;;;;;22.21;47.44;97093.69;10320362;28;20100;-30
2022/08/09 17:54:45;;;;;;;6.83;1.40;;;;;;;22.13;48.44;97094.63;10311536;28;20655;-29
2022/08/09 17:59:45;;;;;;;1.87;1.13;;;;;;;22.10;48.12;97099.72;10314813;28;20053;-30
2022/08/09 18:04:49;;;;;;;2.60;1.20;;;;;;;22.09;48.26;97109.09;10315563;28;20305;-30
2022/08/09 18:09:49;;;;;;;2.60;1.13;;;;;;;22.18;47.39;97109.03;10312081;28;20112;-30
2022/08/09 18:14:51;;;;;;;3.40;1.08;;;;;;;22.17;47.23;97109.88;10318502;28;20065;-30
2022/08/09 18:19:52;;;;;;;4.32;1.50;;;;;;;22.18;46.95;97115.81;10311411;28;20039;-30
2022/08/09 18:24:52;;;;;;;2.67;1.73;;;;;;;22.21;47.25;97114.09;10308828;28;20042;-30
2022/08/09 18:29:53;;;;;;;2.45;1.10;;;;;;;22.27;46.47;97124.25;10316488;28;20445;-31
2022/08/09 18:34:53;;;;;;;1.20;1.00;;;;;;;22.34;47.00;97125.91;10318656;28;20039;-30
2022/08/09 18:39:54;;;;;;;3.13;1.20;;;;;;;22.33;46.70;97129.28;10314985;28;20126;-30
2022/08/09 18:44:54;;;;;;;3.08;1.10;;;;;;;22.33;46.01;97143.75;10310605;28;20046;-30
2022/08/09 18:49:55;;;;;;;4.35;1.17;;;;;;;22.33;45.42;97139.47;10325921;28;20042;-30
2022/08/09 18:54:55;;;;;;;3.93;1.20;;;;;;;22.33;45.46;97144.59;10316421;28;20038;-31
2022/08/09 18:59:56;;;;;;;2.07;1.07;;;;;;;22.31;45.99;97153.97;10319987;28;20030;-31
2022/08/09 19:04:56;;;;;;;2.63;1.50;;;;;;;22.25;46.68;97159.13;10324070;28;20269;-30
2022/08/09 19:09:57;;;;;;;0.90;0.88;;;;;;;22.27;46.52;97169.31;10314096;28;20039;-30
2022/08/09 19:14:57;;;;;;;1.92;1.10;;;;;;;22.26;46.44;97176.13;10325048;28;20041;-31
2022/08/09 19:19:57;;;;;;;1.47;1.10;;;;;;;22.20;47.17;97176.16;10317073;28;20057;-30
2022/08/09 19:24:58;;;;;;;4.07;1.20;;;;;;;22.28;47.69;97182.06;10318141;28;20486;-30
2022/08/09 19:30:00;;;;;;;3.95;1.27;;;;;;;22.36;47.90;97187.09;10317672;28;20497;-31
2022/08/09 19:35:01;;;;;;;1.02;0.88;;;;;;;22.20;49.67;97194.03;10321994;28;20030;-29
2022/08/09 19:40:02;;;;;;;5.43;1.40;;;;;;;22.20;48.19;97188.06;10326831;28;20125;-30
2022/08/09 19:45:03;;;;;;;5.65;1.42;;;;;;;22.07;49.63;97192.41;10329729;28;20368;-31
2022/08/09 19:50:04;;;;;;;1.23;0.98;;;;;;;21.88;51.91;97190.81;10325838;28;20404;-30
2022/08/09 19:55:05;;;;;;;5.80;1.38;;;;;;;21.85;52.06;97190.88;10325659;28;20096;-29
2022/08/09 20:00:07;;;;;;;2.10;1.00;;;;;;;21.59;53.12;97197.75;10320167;28;20412;-30
2022/08/09 20:05:10;;;;;;;1.70;1.10;;;;;;;21.42;50.75;97204.63;10320163;28;20038;-30
2022/08/09 20:10:11;;;;;;;4.03;1.05;;;;;;;21.40;48.47;97208.88;10323302;28;20121;-30
2022/08/09 20:15:12;;;;;;;2.58;1.92;;;;;;;21.40;47.76;97206.31;10320711;28;20042;-30
2022/08/09 20:20:13;;;;;;;3.50;1.03;;;;;;;21.37;49.11;97211.44;10328761;28;20053;-31
2022/08/09 20:25:13;;;;;;;1.77;0.80;;;;;;;21.34;48.72;97205.50;10324030;28;20034;-30
2022/08/09 20:30:14;;;;;;;1.73;0.90;;;;;;;21.42;49.19;97207.19;10324461;28;20039;-30
2022/08/09 20:35:14;;;;;;;2.47;1.27;;;;;;;21.24;47.56;97212.31;10327631;28;20485;-31
2022/08/09 20:40:17;;;;;;;1.60;1.10;;;;;;;21.29;48.51;97208.06;10327488;28;20324;-31
2022/08/09 20:45:17;;;;;;;4.18;1.20;;;;;;;21.07;45.61;97223.41;10324605;28;20042;-30
2022/08/09 20:50:17;;;;;;;2.92;1.60;;;;;;;21.05;44.93;97202.22;10328760;28;20697;-31
2022/08/09 20:55:18;;;;;;;3.83;1.10;;;;;;;21.18;46.75;97212.34;10320156;28;20133;-31
2022/08/09 21:00:18;;;;;;;2.93;1.13;;;;;;;21.09;45.36;97204.75;10321025;28;20504;-30
2022/08/09 21:05:18;;;;;;;2.60;1.60;;;;;;;21.12;45.82;97211.50;10325155;28;20501;-31
2022/08/09 21:10:19;;;;;;;3.27;1.20;;;;;;;21.09;45.92;97209.84;10317225;28;20108;-30
2022/08/09 21:15:20;;;;;;;1.88;1.25;;;;;;;20.93;44.67;97213.25;10322740;28;20069;-31
2022/08/09 21:20:21;;;;;;;2.55;1.25;;;;;;;20.92;44.76;97201.38;10319328;28;20042;-30
2022/08/09 21:30:41;;;;;;;2.60;1.25;;;;;;;20.91;45.81;97204.78;10320313;28;20137;-29
2022/08/09 21:35:41;;;;;;;2.53;1.30;;;;;;;20.90;45.94;97205.59;10322818;28;20118;-30
2022/08/09 21:40:43;;;;;;;2.47;1.33;;;;;;;20.90;45.51;97200.50;10323881;28;20034;-30
2022/08/09 21:45:43;;;;;;;1.55;1.15;;;;;;;20.91;46.30;97194.59;10323037;28;20034;-30
2022/08/09 21:50:44;;;;;;;1.10;1.00;;;;;;;20.93;46.47;97198.00;10323731;28;20068;-30
2022/08/09 21:55:44;;;;;;;7.80;2.20;;;;;;;20.85;46.00;97199.66;10317944;28;20121;-30
2022/08/09 22:00:45;;;;;;;3.27;1.30;;;;;;;20.93;46.77;97203.09;10323038;28;20527;-31
2022/08/09 22:05:45;;;;;;;6.00;1.33;;;;;;;20.79;46.45;97181.84;10324339;28;20038;-30
2022/08/09 22:10:47;;;;;;;2.07;1.03;;;;;;;20.76;46.71;97193.72;10322947;28;20445;-30
2022/08/09 22:15:48;;;;;;;3.13;1.27;;;;;;;20.69;46.02;97187.81;10321572;28;20294;-30
2022/08/09 22:20:51;;;;;;;2.03;1.30;;;;;;;20.58;46.68;97194.63;10322071;28;20038;-31
2022/08/09 22:25:51;;;;;;;1.67;1.30;;;;;;;20.61;46.83;97193.75;10316550;28;20081;-32
2022/08/09 22:30:52;;;;;;;4.03;1.10;;;;;;;20.53;46.54;97193.75;10320214;28;20125;-31
2022/08/09 22:35:52;;;;;;;2.57;1.10;;;;;;;20.62;46.91;97195.47;10320468;28;20034;-31
2022/08/09 22:40:53;;;;;;;4.97;1.33;;;;;;;20.49;47.64;97203.94;10321598;28;20038;-30
2022/08/09 22:45:55;;;;;;;1.48;1.10;;;;;;;20.58;47.06;97198.84;10320775;28;20089;-30
2022/08/09 22:50:55;;;;;;;3.13;1.52;;;;;;;20.61;47.23;97196.28;10323470;28;20039;-30
2022/08/09 22:55:55;;;;;;;5.13;1.20;;;;;;;20.61;47.14;97192.06;10320088;28;20496;-30
2022/08/09 23:00:56;;;;;;;3.17;1.57;;;;;;;20.50;47.42;97191.22;10321677;28;20022;-30
2022/08/09 23:05:56;;;;;;;1.90;1.00;;;;;;;20.45;47.47;97198.00;10322272;28;20030;-30
2022/08/09 23:10:56;;;;;;;1.80;1.40;;;;;;;20.45;47.58;97190.38;10323984;28;20041;-30
2022/08/09 23:15:57;;;;;;;3.40;1.27;;;;;;;20.58;47.73;97184.44;10319258;28;20337;-30
2022/08/09 23:20:57;;;;;;;3.60;1.40;;;;;;;20.38;48.26;97180.22;10315827;28;20034;-30
2022/08/09 23:25:58;;;;;;;4.23;1.20;;;;;;;20.42;47.80;97170.03;10313408;28;20302;-29
2022/08/09 23:30:58;;;;;;;2.30;1.50;;;;;;;20.42;48.23;97166.63;10321374;28;20113;-30
2022/08/09 23:35:58;;;;;;;1.30;1.20;;;;;;;20.42;48.13;97166.63;10326383;28;20030;-30